MAPA DE AEROPUERTO

INFORMACIÓN METAR y TAF

METAR FOR GVAC
ADDS - METARS form results

(1831 UTC 23 October 2021)
Data provider http://aviationweather.gov/metar/data/
 
METAR text: GVAC 231800Z 06016KT CAVOK 27/21 Q1013 NOSIG
Conditions at: GVAC (SAL ISL/AMILCAR , CV) observed 1800 UTC 23 October 2021
Temperature: 27.0°C (81°F)
Dewpoint: 21.0°C (70°F) [RH = 70%]
Pressure (altimeter): 29.91 inches Hg (1013.0 mb)
Winds: from the ENE (60 degrees) at 18 MPH (16 knots; 8.2 m/s)
Visibility: 6 or more miles (10+ km)
Ceiling: ceiling and visibility are OK
Clouds: unknown
Weather: no significant weather observed at this time

Forecast for: GVAC (SAL ISL/AMILCAR , CV)
Text: TAF GVAC 231700Z 2318/2424 05015KT 9999 FEW013
Forecast period: 1800 UTC 23 October 2021 to 0000 UTC 25 October 2021
Forecast type: FROM: standard forecast or significant change
Winds: from the NE (50 degrees) at 17 MPH (15 knots; 7.7 m/s)
Visibility: 6 or more miles (10+ km)
Ceiling: at least 12,000 feet AGL
Clouds: few clouds at 1300 feet AGL
Weather: no significant weather forecast for this period